createdAt,value
2019-05-23T00:01:48.128Z,10.80
2019-05-23T00:04:22.503Z,10.70
2019-05-23T00:06:50.052Z,10.60
2019-05-23T00:09:16.911Z,10.60
2019-05-23T00:11:43.923Z,10.50
2019-05-23T00:14:21.521Z,10.50
2019-05-23T00:16:51.109Z,10.50
2019-05-23T00:19:19.719Z,10.50
2019-05-23T00:21:48.387Z,10.50
2019-05-23T00:24:16.271Z,10.50
2019-05-23T00:26:44.253Z,10.40
2019-05-23T00:29:11.588Z,10.40
2019-05-23T00:31:58.218Z,10.40
2019-05-23T00:34:25.821Z,10.40
2019-05-23T00:36:53.639Z,10.50
2019-05-23T00:39:22.195Z,10.30
2019-05-23T00:41:50.094Z,10.30
2019-05-23T00:44:18.412Z,10.30
2019-05-23T00:46:45.887Z,10.20
2019-05-23T00:49:15.397Z,10.20
2019-05-23T00:51:43.009Z,10.20
2019-05-23T00:54:10.379Z,10.10
2019-05-23T00:56:37.927Z,10.10
2019-05-23T00:59:06.224Z,10.00
2019-05-23T01:01:33.549Z,11.00
2019-05-23T01:04:02.755Z,9.90
2019-05-23T01:06:30.415Z,9.90
2019-05-23T01:08:58.722Z,9.90
2019-05-23T01:11:25.550Z,9.90
2019-05-23T01:13:53.527Z,9.80
2019-05-23T01:16:22.783Z,9.80
2019-05-23T01:18:51.278Z,9.70
2019-05-23T01:21:27.969Z,9.70
2019-05-23T01:24:06.644Z,9.70
2019-05-23T01:26:33.720Z,9.70
2019-05-23T01:29:02.621Z,9.70
2019-05-23T01:31:34.360Z,9.70
2019-05-23T01:34:03.500Z,9.60
2019-05-23T01:36:31.272Z,9.50
2019-05-23T01:38:59.284Z,9.60
2019-05-23T01:41:26.348Z,9.70
2019-05-23T01:43:53.433Z,9.60
2019-05-23T01:46:20.383Z,9.60
2019-05-23T01:48:48.236Z,9.60
2019-05-23T01:51:16.019Z,9.60
2019-05-23T01:53:42.952Z,9.60
2019-05-23T01:56:10.213Z,9.60
2019-05-23T01:58:37.940Z,9.60
2019-05-23T02:01:05.178Z,9.60
2019-05-23T02:03:32.455Z,9.60
2019-05-23T02:05:59.813Z,9.50
2019-05-23T02:08:26.939Z,9.50
2019-05-23T02:10:53.855Z,9.50
2019-05-23T02:13:20.901Z,9.30
2019-05-23T02:15:48.188Z,9.50
2019-05-23T02:18:17.051Z,9.40
2019-05-23T02:20:45.079Z,9.40
2019-05-23T02:23:12.847Z,9.30
2019-05-23T02:25:41.790Z,9.30
2019-05-23T02:28:09.775Z,9.30
2019-05-23T02:30:37.133Z,9.20
2019-05-23T02:33:04.221Z,9.20
2019-05-23T02:35:31.473Z,9.20
2019-05-23T02:38:21.189Z,9.20
2019-05-23T02:40:55.392Z,9.20
2019-05-23T02:43:23.311Z,9.20
2019-05-23T02:45:54.667Z,9.20
2019-05-23T02:48:25.031Z,9.20
2019-05-23T02:50:57.754Z,9.20
2019-05-23T02:53:28.728Z,9.20
2019-05-23T02:55:59.132Z,9.20
2019-05-23T02:58:32.827Z,9.20
2019-05-23T03:01:30.029Z,9.20
2019-05-23T03:04:02.530Z,9.20
2019-05-23T03:06:29.967Z,9.10
2019-05-23T03:08:58.980Z,9.10
2019-05-23T03:11:38.104Z,9.10
2019-05-23T03:14:05.112Z,9.10
2019-05-23T03:16:33.441Z,9.00
2019-05-23T03:19:05.229Z,9.00
2019-05-23T03:21:34.268Z,9.10
2019-05-23T03:24:01.539Z,9.00
2019-05-23T03:26:56.003Z,9.10
2019-05-23T03:29:23.198Z,9.10
2019-05-23T03:31:55.111Z,9.10
2019-05-23T03:34:24.270Z,9.10
2019-05-23T03:36:52.785Z,9.10
2019-05-23T03:39:19.867Z,9.10
2019-05-23T03:41:47.389Z,9.10
2019-05-23T03:44:14.546Z,9.10
2019-05-23T03:46:46.084Z,9.10
2019-05-23T03:49:14.177Z,9.10
2019-05-23T03:51:41.728Z,9.10
2019-05-23T03:54:10.592Z,9.10
2019-05-23T03:56:37.307Z,9.10
2019-05-23T03:59:05.768Z,9.20
2019-05-23T04:01:46.734Z,9.20
2019-05-23T04:04:02.929Z,9.20
2019-05-23T04:06:30.889Z,9.30
2019-05-23T04:08:57.832Z,9.30
2019-05-23T04:11:24.914Z,9.40
2019-05-23T04:13:51.865Z,9.50
2019-05-23T04:16:19.332Z,9.50
2019-05-23T04:18:46.718Z,9.60
2019-05-23T04:21:14.694Z,9.70
2019-05-23T04:23:42.169Z,9.80
2019-05-23T04:26:10.205Z,9.80
2019-05-23T04:28:37.377Z,9.90
2019-05-23T04:31:05.428Z,9.90
2019-05-23T04:33:32.807Z,10.00
2019-05-23T04:35:59.645Z,10.10
2019-05-23T04:38:26.503Z,10.20
2019-05-23T04:40:53.499Z,10.20
2019-05-23T04:43:20.517Z,10.30
2019-05-23T04:45:48.065Z,10.40
2019-05-23T04:48:16.160Z,10.10
2019-05-23T04:50:44.983Z,10.50
2019-05-23T04:53:11.791Z,10.60
2019-05-23T04:55:39.349Z,10.70
2019-05-23T04:58:06.913Z,10.80
2019-05-23T05:00:34.153Z,10.90
2019-05-23T05:03:02.140Z,11.00
2019-05-23T05:05:29.396Z,11.10
2019-05-23T05:07:56.134Z,11.30
2019-05-23T05:10:25.240Z,11.40
2019-05-23T05:12:52.395Z,11.40
2019-05-23T05:15:19.856Z,11.40
2019-05-23T05:17:47.670Z,11.50
2019-05-23T05:20:15.796Z,11.60
2019-05-23T05:22:42.955Z,11.70
2019-05-23T05:25:11.112Z,11.70
2019-05-23T05:27:38.422Z,11.70
2019-05-23T05:30:05.751Z,11.80
2019-05-23T05:32:44.239Z,11.90
2019-05-23T05:35:01.703Z,12.10
2019-05-23T05:37:29.287Z,12.20
2019-05-23T05:39:56.783Z,12.60
2019-05-23T05:42:24.056Z,13.10
2019-05-23T05:44:50.821Z,13.40
2019-05-23T05:47:18.706Z,13.70
2019-05-23T05:49:46.280Z,13.70
2019-05-23T05:52:13.855Z,14.10
2019-05-23T05:54:41.187Z,14.50
2019-05-23T05:57:08.143Z,15.10
2019-05-23T05:59:35.515Z,15.60
2019-05-23T06:02:04.807Z,16.10
2019-05-23T06:04:31.963Z,16.70
2019-05-23T06:07:20.657Z,17.00
2019-05-23T06:09:48.903Z,17.20
2019-05-23T06:12:16.181Z,17.80
2019-05-23T06:14:46.437Z,18.00
2019-05-23T06:17:15.054Z,18.40
2019-05-23T06:19:42.415Z,18.40
2019-05-23T06:22:11.597Z,18.70
2019-05-23T06:24:46.483Z,19.10
2019-05-23T06:27:09.675Z,18.80
2019-05-23T06:29:36.748Z,19.10
2019-05-23T06:32:05.947Z,19.20
2019-05-23T06:34:32.859Z,19.20
2019-05-23T06:37:00.308Z,19.10
2019-05-23T06:39:27.937Z,19.00
2019-05-23T06:41:55.444Z,18.90
2019-05-23T06:44:22.322Z,18.80
2019-05-23T06:46:49.594Z,18.20
2019-05-23T06:49:16.435Z,18.20
2019-05-23T06:51:43.395Z,18.20
2019-05-23T06:54:11.795Z,18.10
2019-05-23T06:56:38.915Z,17.30
2019-05-23T06:59:06.090Z,19.30
2019-05-23T07:01:33.044Z,19.30
2019-05-23T07:04:00.239Z,19.60
2019-05-23T07:06:28.071Z,19.30
2019-05-23T07:08:55.044Z,19.60
2019-05-23T07:11:22.711Z,19.60
2019-05-23T07:13:49.868Z,19.50
2019-05-23T07:16:16.827Z,19.70
2019-05-23T07:18:44.031Z,19.80
2019-05-23T07:21:11.847Z,19.90
2019-05-23T07:23:38.848Z,20.00
2019-05-23T07:26:05.871Z,20.30
2019-05-23T07:28:33.587Z,20.50
2019-05-23T07:31:00.828Z,21.00
2019-05-23T07:33:27.804Z,21.20
2019-05-23T07:35:55.257Z,20.80
2019-05-23T07:38:22.136Z,21.30
2019-05-23T07:40:49.273Z,21.60
2019-05-23T07:43:16.672Z,21.50
2019-05-23T07:45:50.932Z,21.80
2019-05-23T07:48:17.703Z,22.20
2019-05-23T07:50:44.719Z,22.40
2019-05-23T07:53:15.990Z,22.10
2019-05-23T07:55:43.471Z,22.60
2019-05-23T07:58:13.401Z,23.20
2019-05-23T08:00:44.175Z,23.80
2019-05-23T08:03:11.520Z,23.60
2019-05-23T08:05:38.679Z,23.60
2019-05-23T08:08:06.363Z,23.60
2019-05-23T08:10:34.508Z,23.20
2019-05-23T08:13:02.179Z,23.10
2019-05-23T08:15:29.936Z,23.60
2019-05-23T08:17:57.053Z,23.90
2019-05-23T08:20:25.409Z,24.20
2019-05-23T08:22:52.596Z,24.70
2019-05-23T08:25:19.680Z,24.10
2019-05-23T08:27:46.518Z,24.10
2019-05-23T08:30:14.815Z,24.30
2019-05-23T08:32:42.288Z,24.20
2019-05-23T08:35:09.381Z,24.00
2019-05-23T08:37:37.444Z,24.00
2019-05-23T08:40:06.565Z,24.20
2019-05-23T08:42:34.219Z,24.90
2019-05-23T08:45:01.900Z,25.00
2019-05-23T08:47:29.240Z,24.40
2019-05-23T08:49:56.283Z,23.80
2019-05-23T08:52:23.311Z,24.80
2019-05-23T08:54:55.248Z,25.40
2019-05-23T08:57:22.532Z,25.90
2019-05-23T08:59:49.582Z,25.50
2019-05-23T09:02:17.272Z,26.10
2019-05-23T09:05:02.253Z,26.10
2019-05-23T09:07:13.905Z,25.70
2019-05-23T09:09:42.387Z,24.90
2019-05-23T09:12:09.248Z,25.50
2019-05-23T09:14:36.610Z,24.80
2019-05-23T09:17:03.763Z,25.10
2019-05-23T09:19:30.734Z,25.40
2019-05-23T09:21:58.375Z,25.80
2019-05-23T09:24:25.509Z,25.90
2019-05-23T09:26:52.457Z,26.50
2019-05-23T09:29:19.246Z,25.80
2019-05-23T09:31:46.594Z,25.30
2019-05-23T09:34:13.489Z,25.00
2019-05-23T09:36:40.836Z,24.80
2019-05-23T09:39:09.762Z,25.00
2019-05-23T09:41:37.502Z,26.10
2019-05-23T09:44:05.547Z,25.70
2019-05-23T09:46:32.420Z,25.90
2019-05-23T09:48:59.539Z,26.10
2019-05-23T09:51:26.377Z,25.80
2019-05-23T09:53:53.352Z,25.70
2019-05-23T09:56:20.315Z,26.70
2019-05-23T09:58:47.275Z,27.30
2019-05-23T10:01:15.660Z,27.20
2019-05-23T10:03:42.618Z,27.60
2019-05-23T10:06:09.591Z,26.70
2019-05-23T10:08:36.357Z,27.10
2019-05-23T10:11:03.616Z,26.40
2019-05-23T10:13:39.138Z,26.70
2019-05-23T10:16:07.731Z,26.50
2019-05-23T10:18:34.667Z,27.00
2019-05-23T10:21:01.482Z,27.10
2019-05-23T10:23:28.518Z,26.40
2019-05-23T10:25:55.493Z,26.50
2019-05-23T10:28:22.340Z,27.20
2019-05-23T10:30:49.311Z,27.40
2019-05-23T10:33:16.330Z,26.80
2019-05-23T10:35:58.927Z,26.10
2019-05-23T10:38:12.537Z,25.90
2019-05-23T10:40:39.709Z,26.80
2019-05-23T10:43:07.788Z,27.20
2019-05-23T10:45:35.243Z,27.00
2019-05-23T10:48:02.629Z,27.40
2019-05-23T10:50:43.686Z,27.50
2019-05-23T10:52:58.483Z,27.20
2019-05-23T10:55:25.435Z,27.10
2019-05-23T10:57:52.320Z,27.50
2019-05-23T11:00:21.381Z,26.80
2019-05-23T11:02:48.436Z,26.80
2019-05-23T11:05:15.600Z,28.10
2019-05-23T11:07:43.075Z,27.70
2019-05-23T11:10:11.105Z,28.00
2019-05-23T11:12:38.088Z,28.00
2019-05-23T11:15:05.469Z,27.70
2019-05-23T11:17:33.388Z,28.20
2019-05-23T11:20:00.333Z,28.10
2019-05-23T11:22:27.807Z,29.00
2019-05-23T11:24:56.213Z,29.20
2019-05-23T11:27:23.293Z,30.00
2019-05-23T11:29:50.630Z,29.60
2019-05-23T11:32:20.329Z,29.40
2019-05-23T11:34:46.691Z,30.10
2019-05-23T11:37:13.526Z,30.50
2019-05-23T11:39:49.736Z,30.30
2019-05-23T11:42:09.356Z,29.90
2019-05-23T11:44:36.223Z,29.30
2019-05-23T11:47:04.223Z,29.60
2019-05-23T11:49:31.395Z,29.30
2019-05-23T11:51:58.408Z,28.90
2019-05-23T11:54:26.168Z,28.50
2019-05-23T11:56:54.559Z,28.90
2019-05-23T11:59:21.567Z,29.10
2019-05-23T12:02:06.657Z,29.10
2019-05-23T12:04:39.248Z,29.40
2019-05-23T12:07:09.993Z,28.80
2019-05-23T12:09:37.350Z,28.60
2019-05-23T12:12:04.380Z,27.90
2019-05-23T12:14:31.672Z,27.00
2019-05-23T12:16:59.130Z,26.80
2019-05-23T12:19:26.129Z,26.80
2019-05-23T12:21:52.954Z,26.80
2019-05-23T12:24:20.016Z,26.80
2019-05-23T12:26:46.910Z,26.80
2019-05-23T12:29:14.552Z,26.80
2019-05-23T12:31:41.395Z,25.80
2019-05-23T12:34:08.668Z,25.80
2019-05-23T12:36:35.551Z,26.00
2019-05-23T12:39:04.555Z,26.30
2019-05-23T12:41:31.575Z,26.30
2019-05-23T12:43:58.499Z,26.00
2019-05-23T12:46:25.270Z,25.70
2019-05-23T12:49:03.883Z,25.20
2019-05-23T12:51:33.198Z,25.30
2019-05-23T12:54:00.060Z,25.30
2019-05-23T12:56:27.239Z,25.20
2019-05-23T12:58:54.302Z,24.60
2019-05-23T13:01:21.519Z,24.30
2019-05-23T13:03:48.679Z,24.20
2019-05-23T13:06:15.543Z,24.30
2019-05-23T13:08:42.740Z,24.40
2019-05-23T13:11:09.770Z,24.50
2019-05-23T13:13:36.763Z,24.50
2019-05-23T13:16:04.115Z,24.50
2019-05-23T13:18:31.200Z,24.20
2019-05-23T13:20:59.658Z,24.40
2019-05-23T13:23:27.040Z,24.20
2019-05-23T13:25:53.915Z,24.00
2019-05-23T13:28:20.792Z,23.70
2019-05-23T13:30:48.157Z,23.80
2019-05-23T13:33:15.523Z,23.50
2019-05-23T13:35:43.084Z,23.60
2019-05-23T13:38:10.017Z,23.80
2019-05-23T13:40:37.248Z,23.70
2019-05-23T13:43:07.104Z,23.80
2019-05-23T13:45:32.996Z,23.70
2019-05-23T13:47:59.948Z,23.80
2019-05-23T13:50:27.664Z,23.80
2019-05-23T13:52:54.803Z,23.60
2019-05-23T13:55:21.823Z,23.70
2019-05-23T13:57:48.820Z,23.70
2019-05-23T14:00:17.459Z,23.50
2019-05-23T14:02:44.342Z,23.60
2019-05-23T14:05:12.264Z,23.60
2019-05-23T14:07:39.156Z,23.60
2019-05-23T14:10:07.836Z,23.30
2019-05-23T14:12:34.833Z,23.40
2019-05-23T14:15:01.739Z,23.50
2019-05-23T14:17:41.607Z,23.60
2019-05-23T14:20:08.716Z,23.80
2019-05-23T14:22:39.500Z,23.60
2019-05-23T14:25:06.783Z,23.60
2019-05-23T14:27:51.907Z,23.60
2019-05-23T14:30:34.335Z,23.60
2019-05-23T14:33:03.636Z,23.50
2019-05-23T14:35:32.154Z,23.70
2019-05-23T14:38:01.211Z,23.70
2019-05-23T14:40:28.478Z,23.40
2019-05-23T14:43:04.420Z,23.30
2019-05-23T14:45:37.632Z,23.20
2019-05-23T14:48:12.286Z,23.00
2019-05-23T14:50:54.581Z,23.10
2019-05-23T14:53:23.653Z,23.30
2019-05-23T14:55:50.662Z,23.30
2019-05-23T14:58:17.732Z,23.30
2019-05-23T15:00:46.549Z,23.30
2019-05-23T15:03:13.471Z,23.30
2019-05-23T15:05:40.357Z,23.20
2019-05-23T15:08:07.091Z,23.30
2019-05-23T15:10:34.260Z,23.40
2019-05-23T15:13:01.103Z,23.40
2019-05-23T15:15:28.558Z,23.30
2019-05-23T15:17:55.512Z,23.20
2019-05-23T15:20:22.811Z,23.10
2019-05-23T15:22:49.743Z,23.10
2019-05-23T15:25:18.435Z,23.10
2019-05-23T15:27:45.560Z,23.10
2019-05-23T15:30:13.247Z,23.20
2019-05-23T15:32:40.124Z,23.10
2019-05-23T15:35:07.090Z,23.00
2019-05-23T15:37:34.088Z,22.90
2019-05-23T15:40:00.923Z,22.90
2019-05-23T15:42:27.924Z,22.90
2019-05-23T15:44:54.634Z,22.90
2019-05-23T15:47:23.475Z,22.80
2019-05-23T15:49:53.236Z,22.90
2019-05-23T15:52:38.369Z,23.10
2019-05-23T15:55:16.684Z,23.00
2019-05-23T15:57:54.696Z,22.90
2019-05-23T16:00:42.427Z,22.90
2019-05-23T16:03:17.880Z,23.00
2019-05-23T16:05:44.855Z,22.90
2019-05-23T16:08:11.919Z,22.80
2019-05-23T16:10:38.889Z,22.50
2019-05-23T16:13:06.699Z,22.80
2019-05-23T16:15:34.255Z,22.80
2019-05-23T16:18:02.222Z,22.90
2019-05-23T16:20:29.105Z,22.90
2019-05-23T16:22:56.442Z,22.90
2019-05-23T16:25:23.351Z,23.00
2019-05-23T16:27:50.687Z,22.70
2019-05-23T16:30:17.827Z,22.60
2019-05-23T16:32:46.726Z,22.60
2019-05-23T16:35:13.597Z,22.60
2019-05-23T16:37:40.596Z,22.60
2019-05-23T16:40:08.075Z,22.60
2019-05-23T16:42:35.059Z,22.60
2019-05-23T16:45:02.251Z,22.50
2019-05-23T16:47:29.195Z,22.40
2019-05-23T16:49:56.159Z,22.40
2019-05-23T16:52:23.086Z,22.40
2019-05-23T16:54:52.247Z,22.40
2019-05-23T16:57:44.532Z,22.50
2019-05-23T17:00:30.383Z,22.50
2019-05-23T17:03:09.431Z,22.40
2019-05-23T17:05:54.599Z,22.20
2019-05-23T17:08:36.812Z,22.20
2019-05-23T17:11:12.667Z,22.10
2019-05-23T17:13:52.180Z,22.10
2019-05-23T17:16:40.764Z,22.10
2019-05-23T17:19:15.494Z,22.10
2019-05-23T17:21:49.215Z,22.00
2019-05-23T17:24:39.988Z,21.90
2019-05-23T17:27:20.921Z,21.80
2019-05-23T17:29:54.780Z,21.80
2019-05-23T17:32:25.828Z,21.70
2019-05-23T17:34:53.396Z,21.70
2019-05-23T17:37:22.282Z,21.60
2019-05-23T17:39:53.024Z,21.60
2019-05-23T17:42:18.649Z,21.50
2019-05-23T17:44:45.909Z,21.40
2019-05-23T17:47:13.577Z,21.30
2019-05-23T17:49:40.452Z,21.30
2019-05-23T17:52:08.254Z,21.20
2019-05-23T17:54:35.215Z,21.20
2019-05-23T17:57:02.130Z,21.10
2019-05-23T17:59:29.055Z,21.00
2019-05-23T18:01:56.340Z,21.00
2019-05-23T18:04:23.509Z,21.00
2019-05-23T18:06:50.452Z,20.90
2019-05-23T18:09:18.592Z,20.90
2019-05-23T18:11:45.821Z,20.80
2019-05-23T18:14:13.671Z,20.70
2019-05-23T18:16:42.248Z,20.70
2019-05-23T18:19:09.091Z,20.70
2019-05-23T18:21:36.340Z,20.60
2019-05-23T18:24:04.287Z,20.60
2019-05-23T18:26:31.250Z,20.60
2019-05-23T18:28:58.043Z,20.50
2019-05-23T18:31:27.722Z,20.40
2019-05-23T18:33:55.960Z,20.50
2019-05-23T18:36:23.750Z,20.30
2019-05-23T18:38:52.343Z,20.20
2019-05-23T18:41:19.365Z,20.20
2019-05-23T18:43:47.230Z,20.10
2019-05-23T18:46:20.159Z,20.10
2019-05-23T18:48:47.063Z,20.00
2019-05-23T18:51:14.126Z,19.90
2019-05-23T18:53:41.283Z,19.80
2019-05-23T18:56:08.286Z,19.80
2019-05-23T18:58:35.282Z,19.70
2019-05-23T19:01:24.070Z,19.60
2019-05-23T19:03:51.047Z,19.50
2019-05-23T19:06:18.147Z,19.50
2019-05-23T19:08:45.360Z,19.40
2019-05-23T19:11:20.962Z,19.20
2019-05-23T19:13:41.040Z,19.30
2019-05-23T19:16:08.191Z,19.10
2019-05-23T19:18:36.287Z,19.10
2019-05-23T19:21:03.491Z,19.00
2019-05-23T19:23:30.997Z,16.90
2019-05-23T19:25:59.262Z,18.80
2019-05-23T19:28:26.713Z,18.70
2019-05-23T19:30:54.193Z,18.60
2019-05-23T19:33:21.246Z,18.50
2019-05-23T19:35:48.283Z,18.40
2019-05-23T19:38:15.563Z,18.30
2019-05-23T19:40:42.771Z,18.20
2019-05-23T19:43:11.967Z,18.20
2019-05-23T19:45:39.194Z,18.00
2019-05-23T19:48:06.175Z,17.90
2019-05-23T19:50:33.332Z,17.80
2019-05-23T19:53:00.259Z,17.80
2019-05-23T19:55:28.243Z,17.70
2019-05-23T19:57:55.955Z,17.60
2019-05-23T20:00:25.081Z,17.40
2019-05-23T20:02:54.802Z,17.40
2019-05-23T20:05:26.007Z,17.20
2019-05-23T20:07:53.087Z,17.20
2019-05-23T20:10:21.646Z,17.00
2019-05-23T20:12:49.840Z,17.00
2019-05-23T20:15:16.855Z,16.90
2019-05-23T20:17:43.884Z,16.80
2019-05-23T20:20:11.144Z,16.90
2019-05-23T20:22:37.923Z,16.70
2019-05-23T20:25:05.099Z,16.60
2019-05-23T20:27:32.023Z,16.50
2019-05-23T20:29:58.863Z,16.40
2019-05-23T20:32:26.171Z,16.40
2019-05-23T20:34:53.167Z,16.30
2019-05-23T20:37:22.063Z,16.20
2019-05-23T20:39:49.421Z,16.10
2019-05-23T20:42:16.459Z,16.00
2019-05-23T20:44:43.463Z,16.00
2019-05-23T20:47:11.742Z,15.90
2019-05-23T20:49:38.688Z,15.80
2019-05-23T20:52:06.283Z,15.80
2019-05-23T20:54:33.891Z,15.60
2019-05-23T20:57:01.277Z,15.50
2019-05-23T20:59:28.427Z,15.50
2019-05-23T21:01:55.468Z,15.40
2019-05-23T21:04:22.231Z,15.40
2019-05-23T21:06:49.399Z,15.20
2019-05-23T21:09:16.429Z,15.30
2019-05-23T21:11:43.303Z,15.20
2019-05-23T21:14:10.288Z,15.20
2019-05-23T21:16:37.157Z,15.10
2019-05-23T21:19:04.433Z,15.10
2019-05-23T21:21:31.291Z,15.10
2019-05-23T21:23:58.242Z,15.00
2019-05-23T21:26:25.277Z,15.00
2019-05-23T21:28:52.642Z,15.00
2019-05-23T21:31:21.931Z,15.00
2019-05-23T21:33:48.887Z,14.90
2019-05-23T21:36:15.911Z,14.80
2019-05-23T21:38:42.647Z,14.90
2019-05-23T21:41:09.715Z,14.80
2019-05-23T21:43:36.487Z,14.70
2019-05-23T21:46:03.746Z,14.80
2019-05-23T21:48:30.715Z,14.70
2019-05-23T21:50:57.675Z,14.70
2019-05-23T21:53:24.450Z,14.60
2019-05-23T21:55:51.316Z,14.60
2019-05-23T21:58:18.816Z,14.60
2019-05-23T22:01:28.930Z,14.50
2019-05-23T22:04:10.704Z,14.50
2019-05-23T22:06:38.687Z,14.40
2019-05-23T22:09:08.195Z,14.40
2019-05-23T22:11:35.183Z,14.40
2019-05-23T22:14:02.332Z,14.30
2019-05-23T22:16:29.200Z,14.30
2019-05-23T22:18:55.955Z,14.30
2019-05-23T22:21:23.248Z,14.20
2019-05-23T22:23:50.204Z,14.20
2019-05-23T22:26:17.322Z,14.20
2019-05-23T22:28:44.204Z,14.20
2019-05-23T22:31:12.371Z,14.30
2019-05-23T22:33:42.651Z,14.20
2019-05-23T22:36:09.743Z,14.10
2019-05-23T22:38:37.369Z,14.10
2019-05-23T22:41:04.339Z,14.10
2019-05-23T22:43:31.065Z,14.10
2019-05-23T22:45:58.061Z,14.10
2019-05-23T22:48:24.992Z,14.10
2019-05-23T22:50:51.759Z,14.10
2019-05-23T22:53:18.800Z,14.00
2019-05-23T22:55:45.787Z,13.90
2019-05-23T22:58:12.647Z,13.90
2019-05-23T23:00:41.592Z,13.90
2019-05-23T23:03:08.422Z,13.90
2019-05-23T23:05:35.434Z,13.90
2019-05-23T23:08:02.679Z,13.90
2019-05-23T23:10:29.693Z,13.80
2019-05-23T23:12:56.594Z,13.70
2019-05-23T23:15:24.806Z,13.70
2019-05-23T23:17:51.798Z,13.70
2019-05-23T23:20:18.780Z,13.60
2019-05-23T23:22:45.600Z,13.60
2019-05-23T23:25:12.547Z,13.60
2019-05-23T23:27:39.431Z,13.60
2019-05-23T23:30:07.652Z,13.60
2019-05-23T23:32:34.386Z,13.60
2019-05-23T23:35:01.361Z,13.60
2019-05-23T23:37:28.240Z,13.60
2019-05-23T23:39:55.152Z,13.50
2019-05-23T23:42:21.959Z,13.50
2019-05-23T23:44:48.459Z,13.50
2019-05-23T23:47:33.953Z,13.50
2019-05-23T23:50:18.999Z,13.50
2019-05-23T23:53:04.267Z,13.50
2019-05-23T23:55:49.395Z,13.50
2019-05-23T23:58:15.964Z,13.50
